Accueil
METAR-TAF:

METAR-TAF

Aéroports :

Montauk, New York, États-Unis

latitude: 41-04-23N, longitude: 071-55-24W, altitude: 2 m

Observation

Le bulletin a été fait il y a 49 minutes, à 16:54 UTC
Vent 8 kt de sud-ouest avec des rafales jusqu'à 15 kt
Température 18°C
Humidité 88%
Pression 1014 hPa

METAR: KMTP 201654Z AUTO 22008G15KT 18/16 A2994 RMK AO1 SLP137 T01830161

Heure: 13:43 (17:43 UTC)


TAF: absent

Observations et prévisions météorologiques de plus de 4000 aéroports (messages METAR et TAF).

Les stations disponibles sont représentées par des disques jaunes et rouges sur la carte.

Passer la souris dessus pour voir le nom de la station.

Cliquer dessus pour voir les observations et prévisions météorologiques.

Pour changer de carte: cliquez sur les boutons verts avec une croix noire pour zoomer, sur le bouton vert avec un tiret pour effectuer un zoom arrière, ou sur les flèches vertes pour les cartes adjacentes.


METAR-TAF: